Terminal Aerodrome Forecast
Issued by NWS Cleveland, OH

Home | Current Version | Previous Version | Graphics & Text | Print | Product List | Glossary On
Versions: 1 2 3 4 5 6 7 8 9 10 11 12 13 14 15 16 17
000
FTUS41 KCLE 281931 AAA
TAFYNG
TAF AMD
KYNG 281931Z 2820/2918 18005KT P6SM SCT040
     FM282300 28005KT P6SM VCTS BKN040CB
     FM290100 34005KT P6SM BKN150
      TEMPO 2909/2912 4SM BR
     FM291400 04008KT P6SM FEW050=

USA.gov is the U.S. government's official web portal to all federal, state and local government web resources and services.